MHC weather

Mocopulli Airport
Dalcahue, Los Lagos Region, Chile

Public forecast

Using degrees Celsius for public forecast. Weather courtesy of forecast.io.

METAR (pilot weather report)

Retrieved 2019/04/21 18:00 UTC (3 minutes ago):

SCPQ 211800Z 20006KT 9999 OVC012 09/06 Q1019

TAF (pilot weather forecast)

Forecast is more than 6 hours old.

Retrieved 2019/04/21 12:00 UTC (6 hours ago):

TAF SCPQ 211036Z 2112/2124 24003KT 1000 BCFG OVC013 TN08/2112Z TX15/2119Z BECMG 2113/2115 17005KT 9999 NSW BKN016 BECMG 2116/2118 14004KT FEW025 BECMG 2122/2124 VRB02KT